Time;durP1;ratioP1;P1;durP2;ratioP2;P2;SDS_P1;SDS_P2;PMS_P1;PMS_P2;Temp;Humidity;BMP_temperature;BMP_pressure;BME280_temperature;BME280_humidity;BME280_pressure;Samples;Min_cycle;Max_cycle;Signal;HPM_P1;HPM_P2
2024/03/31 00:00:07;;;;;;;0.50;0.40;;;8.40;99.90;;;;;;5075001;28;20202;-81
2024/03/31 00:02:33;;;;;;;0.50;0.43;;;8.40;99.90;;;;;;5075281;28;20194;-82
2024/03/31 00:05:00;;;;;;;0.50;0.50;;;8.30;99.90;;;;;;5075162;28;20201;-81
2024/03/31 00:07:26;;;;;;;1.02;1.02;;;8.30;99.90;;;;;;5076685;28;20719;-81
2024/03/31 00:09:53;;;;;;;0.50;0.40;;;8.30;99.90;;;;;;5076661;28;20190;-81
2024/03/31 00:12:19;;;;;;;0.50;0.50;;;8.20;99.90;;;;;;5076669;28;20197;-82
2024/03/31 00:14:47;;;;;;;0.50;0.40;;;8.20;99.90;;;;;;5076963;28;20198;-81
2024/03/31 00:17:13;;;;;;;0.50;0.40;;;8.20;99.90;;;;;;5076747;28;20214;-81
2024/03/31 00:19:40;;;;;;;0.50;0.40;;;8.20;99.90;;;;;;5076891;28;20194;-82
2024/03/31 00:22:06;;;;;;;0.50;0.40;;;8.20;99.90;;;;;;5076971;28;20620;-81
2024/03/31 00:24:33;;;;;;;1.23;1.13;;;8.20;99.90;;;;;;5076155;28;20186;-81
2024/03/31 00:26:59;;;;;;;0.98;0.88;;;8.20;99.90;;;;;;5080963;28;20191;-79
2024/03/31 00:29:25;;;;;;;0.83;0.80;;;8.20;99.90;;;;;;5086034;28;20253;-79
2024/03/31 00:31:53;;;;;;;0.50;0.40;;;8.20;99.90;;;;;;5085532;28;20620;-79
2024/03/31 00:34:24;;;;;;;0.80;0.80;;;8.30;99.90;;;;;;5084540;28;20198;-79
2024/03/31 00:36:49;;;;;;;0.50;0.50;;;8.30;99.90;;;;;;5084182;28;20214;-79
2024/03/31 00:39:16;;;;;;;0.50;0.40;;;8.30;99.90;;;;;;5084164;28;20297;-78
2024/03/31 00:41:43;;;;;;;1.05;1.05;;;8.30;99.90;;;;;;5079059;28;20573;-80
2024/03/31 00:44:13;;;;;;;0.75;0.75;;;8.30;99.90;;;;;;5072205;28;20248;-80
2024/03/31 00:46:38;;;;;;;0.50;0.40;;;8.30;99.90;;;;;;5072560;28;20194;-81
2024/03/31 00:49:06;;;;;;;1.00;1.00;;;8.30;99.90;;;;;;5072756;28;20230;-81
2024/03/31 00:51:32;;;;;;;3.53;2.25;;;8.30;99.90;;;;;;5075028;28;20569;-82
2024/03/31 00:54:00;;;;;;;0.50;0.40;;;8.30;99.90;;;;;;5076744;28;20209;-82
2024/03/31 00:56:26;;;;;;;0.50;0.40;;;8.30;99.90;;;;;;5076742;28;20566;-82
2024/03/31 00:58:53;;;;;;;1.27;1.27;;;8.20;99.90;;;;;;5075763;28;20217;-82
2024/03/31 01:01:19;;;;;;;1.35;1.27;;;8.20;99.90;;;;;;5076174;28;20198;-82
2024/03/31 01:03:46;;;;;;;2.97;2.70;;;8.20;99.90;;;;;;5075982;28;20572;-81
2024/03/31 01:06:16;;;;;;;0.70;0.68;;;8.10;99.90;;;;;;5076286;28;20464;-81
2024/03/31 01:08:43;;;;;;;2.45;2.35;;;8.10;99.90;;;;;;5076035;28;20268;-82
2024/03/31 01:11:10;;;;;;;0.50;0.50;;;8.10;99.90;;;;;;5075850;28;20222;-82
2024/03/31 01:13:38;;;;;;;0.50;0.40;;;8.00;99.90;;;;;;5076373;28;20237;-81
2024/03/31 01:16:05;;;;;;;0.50;0.40;;;8.00;99.90;;;;;;5075802;28;20194;-81
2024/03/31 01:18:32;;;;;;;1.13;1.02;;;8.00;99.90;;;;;;5075687;28;20589;-81
2024/03/31 01:20:57;;;;;;;0.60;0.60;;;8.00;99.90;;;;;;5082046;28;20198;-79
2024/03/31 01:23:29;;;;;;;0.70;0.70;;;8.00;99.90;;;;;;5083396;28;20285;-79
2024/03/31 01:26:00;;;;;;;0.93;0.82;;;8.00;99.90;;;;;;5079898;28;20190;-81
2024/03/31 01:28:27;;;;;;;1.02;1.02;;;8.00;99.90;;;;;;5075807;28;20221;-81
2024/03/31 01:30:53;;;;;;;1.88;1.77;;;8.10;99.90;;;;;;5076507;28;20209;-81
2024/03/31 01:33:20;;;;;;;0.50;0.40;;;8.10;99.90;;;;;;5076608;28;20193;-79
2024/03/31 01:35:46;;;;;;;0.50;0.50;;;8.00;99.90;;;;;;5076697;28;20476;-81
2024/03/31 01:38:13;;;;;;;0.67;0.67;;;8.00;99.90;;;;;;5075340;28;20634;-81
2024/03/31 01:40:39;;;;;;;0.50;0.47;;;8.00;99.90;;;;;;5075576;28;20194;-82
2024/03/31 01:43:08;;;;;;;0.50;0.50;;;8.00;99.90;;;;;;5075811;28;20197;-81
2024/03/31 01:45:34;;;;;;;0.50;0.40;;;8.10;99.90;;;;;;5079096;28;20611;-81
2024/03/31 01:48:00;;;;;;;0.50;0.40;;;8.10;99.90;;;;;;5077999;28;20210;-82
2024/03/31 01:50:27;;;;;;;1.48;1.42;;;8.10;99.90;;;;;;5080017;28;20202;-82
2024/03/31 01:52:54;;;;;;;0.63;0.63;;;8.10;99.90;;;;;;5079388;28;20240;-81
2024/03/31 01:55:20;;;;;;;0.50;0.40;;;8.10;99.90;;;;;;5081268;28;20589;-80
2024/03/31 01:57:48;;;;;;;0.50;0.50;;;8.10;99.90;;;;;;5087501;28;20222;-81
2024/03/31 02:00:16;;;;;;;1.17;1.17;;;8.10;99.90;;;;;;5079775;28;20455;-81
2024/03/31 02:02:43;;;;;;;0.50;0.40;;;8.10;99.90;;;;;;5078828;28;20191;-81
2024/03/31 02:05:09;;;;;;;1.05;1.02;;;8.10;99.90;;;;;;5079992;28;20205;-81
2024/03/31 02:07:37;;;;;;;0.50;0.40;;;8.10;99.90;;;;;;5080259;28;20210;-81
2024/03/31 02:10:03;;;;;;;0.50;0.43;;;8.10;99.90;;;;;;5085842;28;20194;-79
2024/03/31 02:12:30;;;;;;;0.50;0.50;;;8.20;99.90;;;;;;5081925;28;20285;-82
2024/03/31 02:14:56;;;;;;;0.50;0.50;;;8.20;99.90;;;;;;5078857;28;20198;-81
2024/03/31 02:17:26;;;;;;;3.70;3.40;;;8.20;99.90;;;;;;5079131;28;20241;-82
2024/03/31 02:19:51;;;;;;;2.55;1.92;;;8.30;99.90;;;;;;5077333;28;20573;-80
2024/03/31 02:22:18;;;;;;;1.50;1.50;;;8.30;99.90;;;;;;5077210;28;20274;-81
2024/03/31 02:24:44;;;;;;;0.80;0.80;;;8.30;99.90;;;;;;5076532;28;20206;-80
2024/03/31 02:27:12;;;;;;;0.50;0.40;;;8.30;99.90;;;;;;5076347;28;20182;-81
2024/03/31 02:29:39;;;;;;;0.75;0.75;;;8.30;99.90;;;;;;5076886;28;20787;-79
2024/03/31 02:32:06;;;;;;;1.98;1.88;;;8.30;99.90;;;;;;5076472;28;20733;-80
2024/03/31 02:34:34;;;;;;;3.72;3.53;;;8.30;99.90;;;;;;5076217;28;20580;-81
2024/03/31 02:37:01;;;;;;;0.50;0.50;;;8.30;99.90;;;;;;5075921;28;20296;-81
2024/03/31 02:39:27;;;;;;;0.98;0.98;;;8.30;99.90;;;;;;5076587;28;20684;-80
2024/03/31 02:41:54;;;;;;;0.50;0.40;;;8.40;99.90;;;;;;5076457;28;20194;-80
2024/03/31 02:44:19;;;;;;;0.50;0.40;;;8.40;99.90;;;;;;5076330;28;20436;-80
2024/03/31 02:46:46;;;;;;;0.50;0.40;;;8.30;99.90;;;;;;5076320;28;20193;-80
2024/03/31 02:49:12;;;;;;;1.73;1.63;;;8.30;99.90;;;;;;5075930;28;20222;-79
2024/03/31 02:51:41;;;;;;;2.73;1.20;;;8.30;99.90;;;;;;5076150;28;20194;-81
2024/03/31 02:54:08;;;;;;;22.83;21.83;;;8.30;99.90;;;;;;5075652;28;20523;-80
2024/03/31 02:56:34;;;;;;;1.90;1.80;;;8.30;99.90;;;;;;5074747;28;20217;-80
2024/03/31 02:59:00;;;;;;;0.50;0.40;;;8.30;99.90;;;;;;5075692;28;20600;-80
2024/03/31 03:01:27;;;;;;;0.50;0.50;;;8.20;99.90;;;;;;5075484;28;20683;-80
2024/03/31 03:03:53;;;;;;;0.50;0.40;;;8.20;99.90;;;;;;5075484;28;20201;-80
2024/03/31 03:06:20;;;;;;;0.80;0.80;;;8.20;99.90;;;;;;5075036;28;20620;-80
2024/03/31 03:08:47;;;;;;;0.70;0.70;;;8.20;99.90;;;;;;5075027;28;20712;-80
2024/03/31 03:11:13;;;;;;;3.83;1.45;;;8.20;99.90;;;;;;5075096;28;20205;-79
2024/03/31 03:13:40;;;;;;;0.93;0.93;;;8.20;99.90;;;;;;5074958;28;20199;-80
2024/03/31 03:16:07;;;;;;;0.50;0.43;;;8.30;99.90;;;;;;5073376;28;20285;-80
2024/03/31 03:18:34;;;;;;;0.90;0.90;;;8.30;99.90;;;;;;5074321;28;20218;-81
2024/03/31 03:21:01;;;;;;;0.93;0.93;;;8.30;99.90;;;;;;5074421;28;20218;-79
2024/03/31 03:23:26;;;;;;;0.50;0.40;;;8.30;99.90;;;;;;5074398;28;20195;-80
2024/03/31 03:25:56;;;;;;;0.50;0.40;;;8.30;99.90;;;;;;5073322;28;20222;-80
2024/03/31 03:28:23;;;;;;;11.98;10.98;;;8.30;99.90;;;;;;5074361;28;20764;-81
2024/03/31 03:30:50;;;;;;;0.50;0.40;;;8.30;99.90;;;;;;5074310;28;20218;-80
2024/03/31 03:33:16;;;;;;;0.50;0.40;;;8.40;99.90;;;;;;5074036;28;20195;-80
2024/03/31 03:35:43;;;;;;;0.90;0.90;;;8.40;99.90;;;;;;5074375;28;20186;-80
2024/03/31 03:38:11;;;;;;;1.73;1.63;;;8.40;99.90;;;;;;5073520;28;20922;-80
2024/03/31 03:40:38;;;;;;;0.50;0.40;;;8.40;99.90;;;;;;5074101;28;20205;-79
2024/03/31 03:43:06;;;;;;;0.50;0.50;;;8.40;99.90;;;;;;5073837;28;20289;-80
2024/03/31 03:45:33;;;;;;;0.50;0.40;;;8.50;99.90;;;;;;5073629;28;20195;-80
2024/03/31 03:47:59;;;;;;;0.50;0.40;;;8.60;99.90;;;;;;5073280;28;20221;-80
2024/03/31 03:50:26;;;;;;;0.50;0.40;;;8.60;99.90;;;;;;5073424;28;20200;-80
2024/03/31 03:52:53;;;;;;;0.90;0.90;;;8.60;99.90;;;;;;5073318;28;20194;-80
2024/03/31 03:55:19;;;;;;;0.50;0.40;;;8.70;99.90;;;;;;5073504;28;20637;-80
2024/03/31 03:57:45;;;;;;;0.70;0.70;;;8.80;99.90;;;;;;5073036;28;20214;-81
2024/03/31 04:00:14;;;;;;;0.60;0.60;;;8.80;99.90;;;;;;5086192;28;20202;-81
2024/03/31 04:02:40;;;;;;;0.50;0.40;;;8.80;99.90;;;;;;5092044;28;20194;-81
2024/03/31 04:05:07;;;;;;;2.73;1.37;;;8.80;99.90;;;;;;5083625;28;20192;-82
2024/03/31 04:07:33;;;;;;;0.50;0.40;;;8.80;99.90;;;;;;5072933;28;20448;-82
2024/03/31 04:10:00;;;;;;;0.50;0.40;;;8.80;99.90;;;;;;5073529;28;20204;-82
2024/03/31 04:12:25;;;;;;;0.50;0.40;;;8.70;99.90;;;;;;5073166;28;20437;-82
2024/03/31 04:14:54;;;;;;;13.03;12.47;;;8.70;99.90;;;;;;5075699;28;20196;-83
2024/03/31 04:17:21;;;;;;;0.50;0.40;;;8.70;99.90;;;;;;5077837;28;20296;-82
2024/03/31 04:19:48;;;;;;;0.50;0.40;;;8.70;99.90;;;;;;5077381;28;20194;-82
2024/03/31 04:22:15;;;;;;;0.80;0.80;;;8.70;99.90;;;;;;5077761;28;20194;-82
2024/03/31 04:24:42;;;;;;;0.50;0.40;;;8.70;99.90;;;;;;5076594;28;20754;-82
2024/03/31 04:27:07;;;;;;;0.50;0.40;;;8.60;99.90;;;;;;5077481;28;20195;-81
2024/03/31 04:29:34;;;;;;;0.50;0.40;;;8.60;99.90;;;;;;5077216;28;20573;-82
2024/03/31 04:32:00;;;;;;;0.60;0.60;;;8.60;99.90;;;;;;5077168;28;20213;-82
2024/03/31 04:34:29;;;;;;;3.97;3.80;;;8.60;99.90;;;;;;5077125;28;20194;-82
2024/03/31 04:36:56;;;;;;;0.50;0.40;;;8.50;99.90;;;;;;5077876;28;20472;-81
2024/03/31 04:39:24;;;;;;;0.50;0.40;;;8.50;99.90;;;;;;5073711;28;20193;-80
2024/03/31 04:41:51;;;;;;;0.50;0.40;;;8.50;99.90;;;;;;5072307;28;20251;-80
2024/03/31 04:44:19;;;;;;;0.57;0.55;;;8.50;99.90;;;;;;5073259;28;20187;-80
2024/03/31 04:46:49;;;;;;;0.50;0.50;;;8.60;99.90;;;;;;5074094;28;20660;-81
2024/03/31 04:49:16;;;;;;;0.50;0.40;;;8.60;99.90;;;;;;5073907;28;20248;-81
2024/03/31 04:51:47;;;;;;;0.50;0.40;;;8.60;99.90;;;;;;5073394;28;20197;-80
2024/03/31 04:54:14;;;;;;;0.50;0.40;;;8.60;99.90;;;;;;5073601;28;20205;-80
2024/03/31 04:56:41;;;;;;;0.88;0.88;;;8.60;99.90;;;;;;5073636;28;20202;-80
2024/03/31 04:59:08;;;;;;;0.50;0.40;;;8.60;99.90;;;;;;5072634;28;20226;-80
2024/03/31 05:01:35;;;;;;;0.63;0.63;;;8.60;99.90;;;;;;5072861;28;20252;-80
2024/03/31 05:04:02;;;;;;;0.50;0.50;;;8.70;99.90;;;;;;5072884;28;20220;-80
2024/03/31 05:06:28;;;;;;;0.60;0.57;;;8.70;99.90;;;;;;5072624;28;20285;-80
2024/03/31 05:08:56;;;;;;;1.03;1.03;;;8.70;99.90;;;;;;5072713;28;20305;-80
2024/03/31 05:11:22;;;;;;;0.50;0.40;;;8.70;99.90;;;;;;5072182;28;20673;-80
2024/03/31 05:13:50;;;;;;;2.63;2.03;;;8.60;99.90;;;;;;5072053;28;20190;-80
2024/03/31 05:16:16;;;;;;;1.70;1.60;;;8.60;99.90;;;;;;5072355;28;20577;-80
2024/03/31 05:18:43;;;;;;;1.40;1.30;;;8.50;99.90;;;;;;5072287;28;20214;-80
2024/03/31 05:21:09;;;;;;;0.50;0.40;;;8.50;99.90;;;;;;5076144;28;20195;-80
2024/03/31 05:23:37;;;;;;;0.50;0.40;;;8.50;99.90;;;;;;5076218;28;20212;-80
2024/03/31 05:26:10;;;;;;;0.70;0.70;;;8.50;99.90;;;;;;5075987;28;20429;-80
2024/03/31 05:28:37;;;;;;;0.95;0.95;;;8.50;99.90;;;;;;5075694;28;20449;-80
2024/03/31 05:31:04;;;;;;;3.42;3.08;;;8.50;99.90;;;;;;5075797;28;20206;-80
2024/03/31 05:33:31;;;;;;;2.65;2.55;;;8.50;99.90;;;;;;5075342;28;20194;-80
2024/03/31 05:35:57;;;;;;;6.07;5.55;;;8.50;99.90;;;;;;5075638;28;20191;-80
2024/03/31 05:38:25;;;;;;;0.50;0.50;;;8.50;99.90;;;;;;5075420;28;20225;-80
2024/03/31 05:40:50;;;;;;;0.95;0.90;;;8.50;99.90;;;;;;5075303;28;20939;-80
2024/03/31 05:43:19;;;;;;;8.77;1.75;;;8.50;99.90;;;;;;5075223;28;20247;-81
2024/03/31 05:45:45;;;;;;;1.42;1.42;;;8.50;99.90;;;;;;5075557;28;20292;-81
2024/03/31 05:48:13;;;;;;;0.50;0.40;;;8.50;99.90;;;;;;5075230;28;20225;-81
2024/03/31 05:50:40;;;;;;;2.75;2.65;;;8.50;99.90;;;;;;5078357;28;20190;-82
2024/03/31 05:53:07;;;;;;;0.70;0.63;;;8.40;99.90;;;;;;5078658;28;20275;-82
2024/03/31 05:55:32;;;;;;;0.50;0.50;;;8.40;99.90;;;;;;5079118;28;20195;-82
2024/03/31 05:58:01;;;;;;;1.20;1.10;;;8.40;99.90;;;;;;5079254;28;20233;-82
2024/03/31 06:00:29;;;;;;;1.10;1.10;;;8.40;99.90;;;;;;5078393;28;20561;-82
2024/03/31 06:02:56;;;;;;;2.17;2.05;;;8.50;99.90;;;;;;5078861;28;20677;-82
2024/03/31 06:05:21;;;;;;;9.38;8.73;;;8.50;99.90;;;;;;5079091;28;20206;-82
2024/03/31 06:07:49;;;;;;;1.73;1.63;;;8.40;99.90;;;;;;5078707;28;20206;-82
2024/03/31 06:10:15;;;;;;;1.23;1.23;;;8.50;99.90;;;;;;5079012;28;20206;-82
2024/03/31 06:12:44;;;;;;;0.80;0.80;;;8.50;99.90;;;;;;5078871;28;20229;-81
2024/03/31 06:15:10;;;;;;;0.77;0.60;;;8.50;99.90;;;;;;5078549;28;20281;-81
2024/03/31 06:17:39;;;;;;;0.60;0.60;;;8.50;99.90;;;;;;5078668;28;20218;-81
2024/03/31 06:20:07;;;;;;;0.68;0.68;;;8.60;99.90;;;;;;5083239;28;20194;-81
2024/03/31 06:22:38;;;;;;;1.48;1.38;;;8.60;99.90;;;;;;5086722;28;20197;-82
2024/03/31 06:25:05;;;;;;;1.25;1.15;;;8.70;99.90;;;;;;5084723;28;20273;-82
2024/03/31 06:27:32;;;;;;;0.52;0.52;;;8.70;99.90;;;;;;5078696;28;20252;-82
2024/03/31 06:29:58;;;;;;;0.50;0.40;;;8.70;99.90;;;;;;5084213;28;20191;-80
2024/03/31 06:32:26;;;;;;;0.60;0.60;;;8.70;99.90;;;;;;5089321;28;20201;-80
2024/03/31 06:34:53;;;;;;;2.00;1.98;;;8.80;99.90;;;;;;5089916;28;20198;-80
2024/03/31 06:37:23;;;;;;;0.50;0.40;;;8.80;99.90;;;;;;5077839;28;20593;-81
2024/03/31 06:39:48;;;;;;;0.50;0.40;;;8.80;99.90;;;;;;5089581;28;20700;-79
2024/03/31 06:42:16;;;;;;;0.50;0.40;;;8.90;99.90;;;;;;5091250;28;20190;-81
2024/03/31 06:44:42;;;;;;;3.05;2.85;;;9.00;99.90;;;;;;5079859;28;20198;-82
2024/03/31 06:47:09;;;;;;;1.73;1.63;;;9.00;99.90;;;;;;5078517;28;20237;-82
2024/03/31 06:49:35;;;;;;;4.40;1.77;;;9.00;99.90;;;;;;5078693;28;20669;-82
2024/03/31 06:52:18;;;;;;;0.50;0.40;;;9.10;99.90;;;;;;5078323;28;20538;-83
2024/03/31 06:54:46;;;;;;;0.60;0.60;;;9.20;99.90;;;;;;5078946;28;20577;-82
2024/03/31 06:57:12;;;;;;;0.50;0.40;;;9.20;99.90;;;;;;5078560;28;20282;-83
2024/03/31 06:59:38;;;;;;;0.73;0.73;;;9.30;99.90;;;;;;5078733;28;20293;-83
2024/03/31 07:02:06;;;;;;;1.17;1.17;;;9.40;99.90;;;;;;5078647;28;20432;-83
2024/03/31 07:04:32;;;;;;;0.60;0.60;;;9.50;99.90;;;;;;5078813;28;20441;-84
2024/03/31 07:06:59;;;;;;;0.50;0.40;;;9.60;99.90;;;;;;5078353;28;20516;-82
2024/03/31 07:09:26;;;;;;;0.50;0.40;;;9.80;99.90;;;;;;5078265;28;20194;-83
2024/03/31 07:11:53;;;;;;;0.50;0.40;;;9.90;99.90;;;;;;5078103;28;20433;-82
2024/03/31 07:14:19;;;;;;;0.50;0.40;;;10.10;99.90;;;;;;5077947;28;20574;-83
2024/03/31 07:16:47;;;;;;;0.50;0.40;;;10.30;99.90;;;;;;5077282;28;20474;-84
2024/03/31 07:19:13;;;;;;;0.50;0.40;;;10.50;99.90;;;;;;5077368;28;20708;-84
2024/03/31 07:21:39;;;;;;;0.50;0.40;;;10.60;99.90;;;;;;5077114;28;20432;-84
2024/03/31 07:24:05;;;;;;;0.50;0.40;;;10.70;99.90;;;;;;5078092;28;20202;-84
2024/03/31 07:26:33;;;;;;;2.50;0.80;;;10.90;99.90;;;;;;5078132;28;20943;-83
2024/03/31 07:28:59;;;;;;;0.50;0.40;;;11.10;99.90;;;;;;5077342;28;20215;-83
2024/03/31 07:31:26;;;;;;;0.63;0.63;;;11.10;99.90;;;;;;5076797;28;20424;-82
2024/03/31 07:33:51;;;;;;;1.83;0.80;;;11.20;99.90;;;;;;5076647;28;20618;-83
2024/03/31 07:36:19;;;;;;;0.50;0.40;;;11.30;99.90;;;;;;5077075;28;20432;-84
2024/03/31 07:38:45;;;;;;;0.50;0.40;;;11.40;99.90;;;;;;5076857;28;20218;-83
2024/03/31 07:41:12;;;;;;;0.50;0.40;;;11.60;99.90;;;;;;5076548;28;20444;-84
2024/03/31 07:43:39;;;;;;;2.80;1.40;;;11.80;99.90;;;;;;5076828;28;20205;-84
2024/03/31 07:46:06;;;;;;;0.80;0.80;;;12.00;99.90;;;;;;5077615;28;20971;-85
2024/03/31 07:48:32;;;;;;;0.50;0.50;;;12.60;99.90;;;;;;5077367;28;20448;-83
2024/03/31 07:50:59;;;;;;;0.57;0.53;;;13.50;99.90;;;;;;5078193;28;20437;-84
2024/03/31 07:53:24;;;;;;;0.50;0.40;;;14.30;99.90;;;;;;5079387;28;20193;-84
2024/03/31 07:55:57;;;;;;;0.60;0.50;;;15.70;99.90;;;;;;5078645;28;20445;-85
2024/03/31 07:58:23;;;;;;;0.50;0.40;;;16.50;99.90;;;;;;5077621;28;20214;-85
2024/03/31 08:00:52;;;;;;;1.10;0.60;;;17.40;99.90;;;;;;5078269;28;20435;-83
2024/03/31 08:03:18;;;;;;;1.17;1.07;;;18.30;99.90;;;;;;5078762;28;20435;-84
2024/03/31 08:05:46;;;;;;;0.70;0.70;;;19.60;99.90;;;;;;5080022;28;20843;-83
2024/03/31 08:08:12;;;;;;;0.50;0.50;;;20.50;99.90;;;;;;5079580;28;20212;-83
2024/03/31 08:10:39;;;;;;;0.50;0.30;;;21.30;99.90;;;;;;5074399;28;20446;-83
2024/03/31 08:13:04;;;;;;;0.60;0.50;;;22.10;99.90;;;;;;5070752;28;20451;-82
2024/03/31 08:15:31;;;;;;;1.00;1.00;;;22.40;99.90;;;;;;5076922;28;20974;-83
2024/03/31 08:17:59;;;;;;;3.03;0.83;;;22.50;99.90;;;;;;5076260;28;20220;-83
2024/03/31 08:20:26;;;;;;;0.80;0.80;;;22.10;99.90;;;;;;5077109;28;20439;-84
2024/03/31 08:22:52;;;;;;;0.83;0.83;;;21.10;99.90;;;;;;5077019;28;20469;-84
2024/03/31 08:25:19;;;;;;;5.27;5.07;;;21.20;99.90;;;;;;5062131;28;20806;-83
2024/03/31 08:27:44;;;;;;;1.30;0.93;;;21.40;99.90;;;;;;5055651;28;20218;-84
2024/03/31 08:30:12;;;;;;;0.50;0.30;;;21.60;99.90;;;;;;5055231;28;20440;-84
2024/03/31 08:32:38;;;;;;;0.50;0.30;;;21.80;99.90;;;;;;5055357;28;20673;-81
2024/03/31 08:35:06;;;;;;;0.50;0.40;;;21.50;99.90;;;;;;5063328;28;20433;-83
2024/03/31 08:37:32;;;;;;;0.50;0.40;;;20.80;99.90;;;;;;5071384;28;20212;-80
2024/03/31 08:40:03;;;;;;;0.50;0.40;;;20.10;99.90;;;;;;5075846;28;20445;-82
2024/03/31 08:42:34;;;;;;;0.50;0.40;;;19.60;99.90;;;;;;5076095;28;20195;-82
2024/03/31 08:45:04;;;;;;;0.50;0.40;;;19.30;99.90;;;;;;5075898;28;20514;-80
2024/03/31 08:47:34;;;;;;;0.50;0.30;;;19.10;99.90;;;;;;5074819;28;20465;-81
2024/03/31 08:50:01;;;;;;;6.27;1.43;;;20.10;99.90;;;;;;5075165;28;20515;-81
2024/03/31 08:52:28;;;;;;;0.50;0.40;;;21.40;99.90;;;;;;5075899;28;20452;-80
2024/03/31 08:54:58;;;;;;;0.80;0.53;;;22.10;99.90;;;;;;5076039;28;20450;-81
2024/03/31 08:57:24;;;;;;;1.27;1.17;;;22.70;99.90;;;;;;5077493;28;20990;-81
2024/03/31 08:59:52;;;;;;;0.50;0.40;;;23.00;99.90;;;;;;5073717;28;20685;-82
2024/03/31 09:02:22;;;;;;;0.50;0.40;;;23.40;99.90;;;;;;5077705;28;20443;-79
2024/03/31 09:04:50;;;;;;;1.17;1.07;;;24.00;99.90;;;;;;5076805;28;20440;-81
2024/03/31 09:07:16;;;;;;;0.50;0.40;;;24.50;99.90;;;;;;5077923;28;20459;-80
2024/03/31 09:09:46;;;;;;;0.50;0.50;;;25.00;99.90;;;;;;5076690;28;20432;-79
2024/03/31 09:12:12;;;;;;;0.97;0.50;;;25.20;99.90;;;;;;5077436;28;20201;-79
2024/03/31 09:14:39;;;;;;;0.50;0.30;;;25.20;99.90;;;;;;5076755;28;20443;-81
2024/03/31 09:17:07;;;;;;;1.00;0.70;;;25.60;97.60;;;;;;5076793;28;20429;-79
2024/03/31 09:19:34;;;;;;;0.50;0.30;;;25.80;94.20;;;;;;5076557;28;20472;-79
2024/03/31 09:22:00;;;;;;;0.50;0.30;;;25.80;95.00;;;;;;5076778;28;20800;-79
2024/03/31 09:24:28;;;;;;;0.50;0.40;;;25.50;95.00;;;;;;5076009;28;20450;-81
2024/03/31 09:26:56;;;;;;;0.50;0.30;;;25.80;95.30;;;;;;5075864;28;20489;-81
2024/03/31 09:29:25;;;;;;;0.50;0.40;;;25.90;92.10;;;;;;5076276;28;20452;-81
2024/03/31 09:31:52;;;;;;;1.13;0.73;;;25.80;93.40;;;;;;5076861;28;20958;-80
2024/03/31 09:34:18;;;;;;;6.53;0.70;;;26.50;94.90;;;;;;5075831;28;20436;-80
2024/03/31 09:36:45;;;;;;;0.50;0.40;;;26.90;94.40;;;;;;5076005;28;20435;-80
2024/03/31 09:39:12;;;;;;;0.80;0.40;;;27.50;90.00;;;;;;5079605;28;20486;-81
2024/03/31 09:41:39;;;;;;;0.50;0.30;;;27.40;85.20;;;;;;5070022;28;20954;-81
2024/03/31 09:44:09;;;;;;;1.53;0.60;;;27.50;83.00;;;;;;5066915;28;20437;-81
2024/03/31 09:46:35;;;;;;;0.50;0.30;;;27.20;80.90;;;;;;5078168;28;20428;-81
2024/03/31 09:49:06;;;;;;;0.50;0.30;;;27.20;85.10;;;;;;5068389;28;20467;-82
2024/03/31 09:51:34;;;;;;;0.50;0.30;;;27.60;84.40;;;;;;5060671;28;20562;-79
2024/03/31 09:54:06;;;;;;;1.33;1.23;;;27.30;74.10;;;;;;5072911;28;20460;-80
2024/03/31 09:56:39;;;;;;;0.50;0.30;;;26.60;78.10;;;;;;5089175;28;20437;-79
2024/03/31 09:59:11;;;;;;;0.50;0.30;;;26.60;82.10;;;;;;5084575;28;20472;-79
2024/03/31 10:01:39;;;;;;;0.50;0.40;;;26.90;82.70;;;;;;5081669;28;20506;-79
2024/03/31 10:04:13;;;;;;;2.70;1.17;;;27.50;81.50;;;;;;5078171;28;20437;-79
2024/03/31 10:06:39;;;;;;;0.70;0.40;;;27.70;78.00;;;;;;5075300;28;20443;-79
2024/03/31 10:09:09;;;;;;;0.50;0.40;;;28.00;75.70;;;;;;5071666;28;20453;-80
2024/03/31 10:11:36;;;;;;;0.50;0.40;;;27.80;75.80;;;;;;5061423;28;20430;-79
2024/03/31 10:14:05;;;;;;;0.50;0.40;;;27.50;74.50;;;;;;5055328;28;20447;-81
2024/03/31 10:16:35;;;;;;;0.50;0.30;;;27.00;73.00;;;;;;5073943;28;20432;-79
2024/03/31 10:19:06;;;;;;;0.50;0.50;;;26.10;73.80;;;;;;5075001;28;20986;-81
2024/03/31 10:21:32;;;;;;;0.50;0.40;;;25.60;72.80;;;;;;5075274;28;20537;-79
2024/03/31 10:24:01;;;;;;;0.50;0.40;;;25.70;79.70;;;;;;5063774;28;20431;-81
2024/03/31 10:26:28;;;;;;;0.50;0.33;;;25.70;79.60;;;;;;5055023;28;20796;-81
2024/03/31 10:28:57;;;;;;;0.50;0.30;;;26.00;78.20;;;;;;5054637;28;20536;-80
2024/03/31 10:31:23;;;;;;;0.60;0.57;;;25.90;73.50;;;;;;5054892;28;20437;-82
2024/03/31 10:33:52;;;;;;;0.50;0.37;;;25.60;73.30;;;;;;5055009;28;20448;-81
2024/03/31 10:36:19;;;;;;;0.50;0.40;;;25.10;75.40;;;;;;5055283;28;20456;-82
2024/03/31 10:38:46;;;;;;;0.50;0.30;;;25.50;76.90;;;;;;5054350;28;20475;-81
2024/03/31 10:41:12;;;;;;;0.50;0.40;;;26.30;74.60;;;;;;5056273;28;20437;-82
2024/03/31 10:43:39;;;;;;;0.50;0.30;;;26.80;76.80;;;;;;5061378;28;21061;-82
2024/03/31 10:46:08;;;;;;;0.60;0.40;;;27.10;72.00;;;;;;5059928;28;20441;-82
2024/03/31 10:48:34;;;;;;;0.50;0.43;;;27.40;72.00;;;;;;5057678;28;20515;-82
2024/03/31 10:51:12;;;;;;;2.00;0.83;;;27.40;68.90;;;;;;5057227;28;20442;-82
2024/03/31 10:53:39;;;;;;;0.50;0.30;;;27.40;69.90;;;;;;5057175;28;20441;-82
2024/03/31 10:56:07;;;;;;;0.50;0.30;;;27.30;70.30;;;;;;5058104;28;20433;-82
2024/03/31 10:58:35;;;;;;;4.50;0.50;;;27.20;70.50;;;;;;5056527;28;21007;-82
2024/03/31 11:01:02;;;;;;;3.03;0.67;;;27.30;69.20;;;;;;5056804;28;20445;-82
2024/03/31 11:03:31;;;;;;;0.50;0.30;;;27.00;69.00;;;;;;5056690;28;20443;-81
2024/03/31 11:05:57;;;;;;;0.50;0.30;;;27.00;72.60;;;;;;5056226;28;20495;-81
2024/03/31 11:08:26;;;;;;;0.50;0.40;;;27.00;70.10;;;;;;5056968;28;20460;-81
2024/03/31 11:10:53;;;;;;;0.50;0.40;;;26.70;69.70;;;;;;5056821;28;20455;-81
2024/03/31 11:13:21;;;;;;;0.50;0.30;;;25.40;69.30;;;;;;5055509;28;20449;-82
2024/03/31 11:15:48;;;;;;;0.60;0.60;;;25.90;73.20;;;;;;5056036;28;20446;-81
2024/03/31 11:18:16;;;;;;;0.50;0.30;;;26.60;71.70;;;;;;5055408;28;20476;-82
2024/03/31 11:20:44;;;;;;;2.10;1.33;;;27.90;70.80;;;;;;5055789;28;20433;-82
2024/03/31 11:23:14;;;;;;;0.50;0.30;;;28.30;63.60;;;;;;5054989;28;20453;-81
2024/03/31 11:25:42;;;;;;;0.50;0.40;;;27.50;67.20;;;;;;5076358;28;20436;-82
2024/03/31 11:28:10;;;;;;;0.70;0.50;;;27.10;65.20;;;;;;5076239;28;20818;-82
2024/03/31 11:30:36;;;;;;;0.50;0.37;;;26.80;67.10;;;;;;5076205;28;20957;-81
2024/03/31 11:33:06;;;;;;;0.50;0.40;;;26.30;65.20;;;;;;5075415;28;20436;-82
2024/03/31 11:35:34;;;;;;;0.53;0.50;;;25.50;70.80;;;;;;5075820;28;20524;-82
2024/03/31 11:38:12;;;;;;;0.50;0.30;;;25.50;67.40;;;;;;5076038;28;20459;-81
2024/03/31 11:40:38;;;;;;;0.50;0.30;;;23.80;68.50;;;;;;5074954;28;20433;-82
2024/03/31 11:43:08;;;;;;;0.50;0.30;;;23.40;72.70;;;;;;5072852;28;20444;-82
2024/03/31 11:45:35;;;;;;;2.97;0.50;;;23.50;73.90;;;;;;5060587;28;20432;-81
2024/03/31 11:48:02;;;;;;;0.50;0.30;;;24.00;72.60;;;;;;5075885;28;20499;-81
2024/03/31 11:50:29;;;;;;;0.50;0.40;;;23.60;69.40;;;;;;5065268;28;20487;-83
2024/03/31 11:52:57;;;;;;;0.50;0.40;;;23.30;73.40;;;;;;5064999;28;20437;-83
2024/03/31 11:55:24;;;;;;;0.50;0.40;;;23.10;72.00;;;;;;5070477;28;20799;-82
2024/03/31 11:57:51;;;;;;;0.60;0.60;;;22.20;71.90;;;;;;5057299;28;20446;-83
2024/03/31 12:00:19;;;;;;;0.50;0.40;;;21.90;73.40;;;;;;5056453;28;20473;-82
2024/03/31 12:02:45;;;;;;;0.50;0.40;;;22.10;72.30;;;;;;5056433;28;20445;-84
2024/03/31 12:05:19;;;;;;;0.50;0.40;;;22.00;73.10;;;;;;5065410;28;20550;-83
2024/03/31 12:07:47;;;;;;;0.50;0.30;;;21.50;73.20;;;;;;5064243;28;20474;-83
2024/03/31 12:10:15;;;;;;;1.60;1.07;;;21.10;75.80;;;;;;5068025;28;20428;-83
2024/03/31 12:12:41;;;;;;;0.50;0.30;;;20.70;73.90;;;;;;5057378;28;20436;-81
2024/03/31 12:15:10;;;;;;;0.50;0.40;;;19.90;76.00;;;;;;5055000;28;20879;-83
2024/03/31 12:17:37;;;;;;;1.77;1.67;;;20.00;77.80;;;;;;5055505;28;20450;-82
2024/03/31 12:20:09;;;;;;;1.37;0.40;;;20.00;77.70;;;;;;5055804;28;20474;-84
2024/03/31 12:22:36;;;;;;;0.50;0.40;;;20.00;78.90;;;;;;5063027;28;20566;-82
2024/03/31 12:25:04;;;;;;;0.50;0.40;;;19.90;79.70;;;;;;5066017;28;20432;-83
2024/03/31 12:27:31;;;;;;;0.50;0.40;;;19.90;78.00;;;;;;5072154;28;20529;-83
2024/03/31 12:29:59;;;;;;;0.50;0.40;;;19.80;77.90;;;;;;5066476;28;20426;-80
2024/03/31 12:32:25;;;;;;;0.50;0.40;;;19.90;78.60;;;;;;5056293;28;20444;-82
2024/03/31 12:34:54;;;;;;;0.50;0.40;;;20.00;77.80;;;;;;5055563;28;20434;-82
2024/03/31 12:37:20;;;;;;;0.50;0.40;;;20.50;77.00;;;;;;5055348;28;20468;-83
2024/03/31 12:39:46;;;;;;;0.50;0.30;;;22.40;77.10;;;;;;5054834;28;20476;-80
2024/03/31 12:42:13;;;;;;;0.50;0.50;;;23.40;73.20;;;;;;5055173;28;20206;-82
2024/03/31 12:44:40;;;;;;;0.50;0.37;;;23.70;70.70;;;;;;5054802;28;20936;-81
2024/03/31 12:47:06;;;;;;;0.50;0.40;;;23.80;69.80;;;;;;5054869;28;20441;-82
2024/03/31 12:49:33;;;;;;;0.50;0.40;;;24.80;72.70;;;;;;5054579;28;20439;-81
2024/03/31 12:52:06;;;;;;;0.50;0.40;;;25.90;71.20;;;;;;5055358;28;20447;-81